createdAt,value
2023-04-21T00:01:27.778Z,6.03
2023-04-21T00:03:55.655Z,5.97
2023-04-21T00:06:23.304Z,4.97
2023-04-21T00:08:50.820Z,5.22
2023-04-21T00:11:17.973Z,5.68
2023-04-21T00:13:44.966Z,5.63
2023-04-21T00:16:11.987Z,5.40
2023-04-21T00:18:38.753Z,4.75
2023-04-21T00:21:05.652Z,4.63
2023-04-21T00:23:32.475Z,5.28
2023-04-21T00:26:02.730Z,4.82
2023-04-21T00:28:30.028Z,5.20
2023-04-21T00:30:56.968Z,5.15
2023-04-21T00:33:23.947Z,5.07
2023-04-21T00:35:50.809Z,4.78
2023-04-21T00:38:17.543Z,5.35
2023-04-21T00:40:44.178Z,5.38
2023-04-21T00:43:10.818Z,5.18
2023-04-21T00:45:37.510Z,5.63
2023-04-21T00:48:04.314Z,4.93
2023-04-21T00:50:31.341Z,5.45
2023-04-21T00:52:58.040Z,5.55
2023-04-21T00:55:24.935Z,5.57
2023-04-21T00:57:52.443Z,5.55
2023-04-21T01:00:19.372Z,6.43
2023-04-21T01:02:46.508Z,6.82
2023-04-21T01:05:13.391Z,7.53
2023-04-21T01:07:40.355Z,6.68
2023-04-21T01:10:07.920Z,8.00
2023-04-21T01:12:42.306Z,7.07
2023-04-21T01:15:09.478Z,7.00
2023-04-21T01:17:38.669Z,8.30
2023-04-21T01:20:09.099Z,6.63
2023-04-21T01:22:39.891Z,7.97
2023-04-21T01:25:07.284Z,7.38
2023-04-21T01:27:34.015Z,7.00
2023-04-21T01:30:02.003Z,7.47
2023-04-21T01:32:30.327Z,6.50
2023-04-21T01:34:58.645Z,6.70
2023-04-21T01:37:28.603Z,6.43
2023-04-21T01:39:57.372Z,6.97
2023-04-21T01:42:25.864Z,6.18
2023-04-21T01:44:54.022Z,7.20
2023-04-21T01:47:21.328Z,6.90
2023-04-21T01:49:48.077Z,6.78
2023-04-21T01:52:14.882Z,6.50
2023-04-21T01:54:41.677Z,6.43
2023-04-21T01:57:08.499Z,6.28
2023-04-21T01:59:36.219Z,6.03
2023-04-21T02:02:03.221Z,7.00
2023-04-21T02:04:30.116Z,6.63
2023-04-21T02:06:56.952Z,6.13
2023-04-21T02:09:23.644Z,6.72
2023-04-21T02:11:50.278Z,6.20
2023-04-21T02:14:17.002Z,6.78
2023-04-21T02:16:43.813Z,6.30
2023-04-21T02:19:10.635Z,6.35
2023-04-21T02:21:37.343Z,6.50
2023-04-21T02:24:04.356Z,7.00
2023-04-21T02:26:31.042Z,6.40
2023-04-21T02:28:57.762Z,6.60
2023-04-21T02:31:24.569Z,6.93
2023-04-21T02:33:51.433Z,6.78
2023-04-21T02:36:18.140Z,6.03
2023-04-21T02:38:44.792Z,6.07
2023-04-21T02:41:11.432Z,6.93
2023-04-21T02:43:38.090Z,6.18
2023-04-21T02:46:08.250Z,5.25
2023-04-21T02:48:37.974Z,6.63
2023-04-21T02:51:04.848Z,6.80
2023-04-21T02:53:31.612Z,7.38
2023-04-21T02:55:58.309Z,5.55
2023-04-21T02:58:25.447Z,5.70
2023-04-21T03:00:52.215Z,5.32
2023-04-21T03:03:19.178Z,6.20
2023-04-21T03:05:46.104Z,6.32
2023-04-21T03:08:12.797Z,5.57
2023-04-21T03:10:39.832Z,6.07
2023-04-21T03:13:06.505Z,6.00
2023-04-21T03:15:33.195Z,6.00
2023-04-21T03:17:59.911Z,5.45
2023-04-21T03:20:26.620Z,5.45
2023-04-21T03:22:54.398Z,6.97
2023-04-21T03:25:21.656Z,5.88
2023-04-21T03:27:48.333Z,6.07
2023-04-21T03:30:15.018Z,6.03
2023-04-21T03:32:41.845Z,6.03
2023-04-21T03:35:08.610Z,7.10
2023-04-21T03:37:35.266Z,7.40
2023-04-21T03:40:01.950Z,9.32
2023-04-21T03:42:30.251Z,8.95
2023-04-21T03:44:56.951Z,13.10
2023-04-21T03:47:23.639Z,9.85
2023-04-21T03:49:50.408Z,12.05
2023-04-21T03:52:17.106Z,14.30
2023-04-21T03:54:43.831Z,13.60
2023-04-21T03:57:10.494Z,14.90
2023-04-21T03:59:37.176Z,14.23
2023-04-21T04:02:04.151Z,14.55
2023-04-21T04:04:31.152Z,15.32
2023-04-21T04:06:58.018Z,13.90
2023-04-21T04:09:24.825Z,14.50
2023-04-21T04:11:51.491Z,14.07
2023-04-21T04:14:18.241Z,15.18
2023-04-21T04:16:44.960Z,13.98
2023-04-21T04:19:12.259Z,22.27
2023-04-21T04:21:38.976Z,19.55
2023-04-21T04:24:05.844Z,13.70
2023-04-21T04:26:34.101Z,14.88
2023-04-21T04:29:02.386Z,14.15
2023-04-21T04:31:30.534Z,11.25
2023-04-21T04:33:57.864Z,17.00
2023-04-21T04:36:25.226Z,14.75
2023-04-21T04:38:51.918Z,14.32
2023-04-21T04:41:19.640Z,13.02
2023-04-21T04:43:46.613Z,11.52
2023-04-21T04:46:13.616Z,10.02
2023-04-21T04:48:40.719Z,9.90
2023-04-21T04:51:07.470Z,9.00
2023-04-21T04:53:34.181Z,9.43
2023-04-21T04:56:00.859Z,8.57
2023-04-21T04:58:27.549Z,8.38
2023-04-21T05:00:54.461Z,9.38
2023-04-21T05:03:21.417Z,8.95
2023-04-21T05:05:48.343Z,10.57
2023-04-21T05:08:17.267Z,8.10
2023-04-21T05:10:44.752Z,9.60
2023-04-21T05:13:11.442Z,11.02
2023-04-21T05:15:38.115Z,12.20
2023-04-21T05:18:05.075Z,10.88
2023-04-21T05:20:31.846Z,10.18
2023-04-21T05:22:58.567Z,11.57
2023-04-21T05:25:25.493Z,13.23
2023-04-21T05:27:52.168Z,13.43
2023-04-21T05:30:18.848Z,22.13
2023-04-21T05:32:45.614Z,20.52
2023-04-21T05:35:12.744Z,15.82
2023-04-21T05:37:39.455Z,16.85
2023-04-21T05:40:06.750Z,16.90
2023-04-21T05:42:33.474Z,15.27
2023-04-21T05:45:00.280Z,16.50
2023-04-21T05:47:26.952Z,16.13
2023-04-21T05:49:54.090Z,16.52
2023-04-21T05:52:21.885Z,19.00
2023-04-21T05:54:48.713Z,14.40
2023-04-21T05:57:16.778Z,12.52
2023-04-21T05:59:43.914Z,14.13
2023-04-21T06:02:11.761Z,13.45
2023-04-21T06:04:38.896Z,13.48
2023-04-21T06:07:09.804Z,15.35
2023-04-21T06:09:37.014Z,15.90
2023-04-21T06:12:04.069Z,13.38
2023-04-21T06:14:30.747Z,12.95
2023-04-21T06:16:57.487Z,13.52
2023-04-21T06:19:24.402Z,13.05
2023-04-21T06:21:51.196Z,13.50
2023-04-21T06:24:24.984Z,9.48
2023-04-21T06:26:53.103Z,4.95
2023-04-21T06:29:20.826Z,4.93
2023-04-21T06:31:47.658Z,4.57
2023-04-21T06:34:14.455Z,3.85
2023-04-21T06:36:41.122Z,4.57
2023-04-21T06:39:07.878Z,3.80
2023-04-21T06:41:34.517Z,3.65
2023-04-21T06:44:01.380Z,3.55
2023-04-21T06:46:28.119Z,3.70
2023-04-21T06:48:54.825Z,3.47
2023-04-21T06:51:21.546Z,2.90
2023-04-21T06:53:48.213Z,3.17
2023-04-21T06:56:14.884Z,2.70
2023-04-21T06:58:41.566Z,3.67
2023-04-21T07:01:08.266Z,3.25
2023-04-21T07:03:35.129Z,2.22
2023-04-21T07:06:01.876Z,3.60
2023-04-21T07:08:28.574Z,2.70
2023-04-21T07:10:55.251Z,2.78
2023-04-21T07:13:21.920Z,2.33
2023-04-21T07:15:48.567Z,2.85
2023-04-21T07:18:15.259Z,4.13
2023-04-21T07:20:41.955Z,3.20
2023-04-21T07:23:08.646Z,2.97
2023-04-21T07:25:35.540Z,2.63
2023-04-21T07:28:03.373Z,2.75
2023-04-21T07:30:30.591Z,2.40
2023-04-21T07:32:57.812Z,3.85
2023-04-21T07:35:25.079Z,3.20
2023-04-21T07:37:51.750Z,3.15
2023-04-21T07:40:18.510Z,3.03
2023-04-21T07:42:45.226Z,3.42
2023-04-21T07:45:12.309Z,2.67
2023-04-21T07:47:39.052Z,2.88
2023-04-21T07:50:06.595Z,2.88
2023-04-21T07:52:33.261Z,2.95
2023-04-21T07:54:59.969Z,3.47
2023-04-21T07:57:26.891Z,4.25
2023-04-21T07:59:53.553Z,3.33
2023-04-21T08:02:20.363Z,3.63
2023-04-21T08:04:47.143Z,4.15
2023-04-21T08:07:16.050Z,5.05
2023-04-21T08:09:42.784Z,5.60
2023-04-21T08:12:09.535Z,5.45
2023-04-21T08:14:36.249Z,4.97
2023-04-21T08:17:03.077Z,4.82
2023-04-21T08:19:29.737Z,5.40
2023-04-21T08:21:57.133Z,4.97
2023-04-21T08:24:23.965Z,5.25
2023-04-21T08:26:50.917Z,5.35
2023-04-21T08:29:17.611Z,5.30
2023-04-21T08:31:44.451Z,5.22
2023-04-21T08:34:11.310Z,4.75
2023-04-21T08:36:38.108Z,6.43
2023-04-21T08:39:04.871Z,6.47
2023-04-21T08:41:31.680Z,5.50
2023-04-21T08:43:58.459Z,5.05
2023-04-21T08:46:26.166Z,4.93
2023-04-21T08:48:55.083Z,5.40
2023-04-21T08:51:24.366Z,6.50
2023-04-21T08:53:52.172Z,4.22
2023-04-21T08:56:19.035Z,3.47
2023-04-21T08:58:45.698Z,4.40
2023-04-21T09:01:12.540Z,4.20
2023-04-21T09:03:39.573Z,5.50
2023-04-21T09:06:09.607Z,4.53
2023-04-21T09:08:43.417Z,4.40
2023-04-21T09:11:14.447Z,3.65
2023-04-21T09:13:42.818Z,4.78
2023-04-21T09:16:21.627Z,5.97
2023-04-21T09:18:50.020Z,5.85
2023-04-21T09:21:18.157Z,5.40
2023-04-21T09:23:44.881Z,5.15
2023-04-21T09:26:12.217Z,4.68
2023-04-21T09:28:46.089Z,4.80
2023-04-21T09:31:17.977Z,4.88
2023-04-21T09:33:57.649Z,4.63
2023-04-21T09:36:28.520Z,5.07
2023-04-21T09:39:12.884Z,4.43
2023-04-21T09:41:41.946Z,4.35
2023-04-21T09:44:08.664Z,4.57
2023-04-21T09:46:37.006Z,7.80
2023-04-21T09:49:04.736Z,4.90
2023-04-21T09:52:02.136Z,3.78
2023-04-21T09:54:29.541Z,3.55
2023-04-21T09:57:02.688Z,3.88
2023-04-21T09:59:43.028Z,3.80
2023-04-21T10:02:09.997Z,3.67
2023-04-21T10:07:21.889Z,3.78
2023-04-21T10:09:52.331Z,7.85
2023-04-21T10:12:19.366Z,3.55
2023-04-21T10:14:46.269Z,4.10
2023-04-21T10:17:12.993Z,4.22
2023-04-21T10:19:50.134Z,3.53
2023-04-21T10:22:27.701Z,6.10
2023-04-21T10:24:56.152Z,5.53
2023-04-21T10:27:43.324Z,3.60
2023-04-21T10:30:20.434Z,3.05
2023-04-21T10:32:47.363Z,3.47
2023-04-21T10:35:24.171Z,3.50
2023-04-21T10:37:52.144Z,4.93
2023-04-21T10:40:43.014Z,3.05
2023-04-21T10:43:44.377Z,9.98
2023-04-21T10:46:34.978Z,9.98
2023-04-21T10:49:24.168Z,7.35
2023-04-21T10:52:00.673Z,4.22
2023-04-21T10:54:52.661Z,5.18
2023-04-21T10:57:20.677Z,3.20
2023-04-21T10:59:48.368Z,4.18
2023-04-21T11:02:16.912Z,5.47
2023-04-21T11:04:51.094Z,3.60
2023-04-21T11:07:20.642Z,3.75
2023-04-21T11:09:50.950Z,3.40
2023-04-21T11:12:18.599Z,3.35
2023-04-21T11:14:48.125Z,3.70
2023-04-21T11:17:19.509Z,3.60
2023-04-21T11:19:56.223Z,3.30
2023-04-21T11:22:24.672Z,3.90
2023-04-21T11:24:54.211Z,4.18
2023-04-21T11:27:22.422Z,3.58
2023-04-21T11:29:50.272Z,3.28
2023-04-21T11:32:17.964Z,3.40
2023-04-21T11:34:45.112Z,3.28
2023-04-21T11:37:26.166Z,8.10
2023-04-21T11:39:59.746Z,7.00
2023-04-21T11:42:26.982Z,3.60
2023-04-21T11:44:55.798Z,2.80
2023-04-21T11:47:27.435Z,4.22
2023-04-21T11:50:01.753Z,3.08
2023-04-21T11:52:33.039Z,3.80
2023-04-21T11:55:02.443Z,3.63
2023-04-21T11:57:30.512Z,3.22
2023-04-21T12:00:04.642Z,3.38
2023-04-21T12:02:32.472Z,3.00
2023-04-21T12:05:01.305Z,2.72
2023-04-21T12:07:30.093Z,3.30
2023-04-21T12:09:56.974Z,3.13
2023-04-21T12:12:26.809Z,2.75
2023-04-21T12:14:53.549Z,3.55
2023-04-21T12:17:20.832Z,2.60
2023-04-21T12:19:48.033Z,2.85
2023-04-21T12:22:17.321Z,3.28
2023-04-21T12:24:44.624Z,2.53
2023-04-21T12:27:11.826Z,2.70
2023-04-21T12:29:39.329Z,3.28
2023-04-21T12:32:06.774Z,3.00
2023-04-21T12:34:33.711Z,2.90
2023-04-21T12:37:01.053Z,2.90
2023-04-21T12:39:28.135Z,2.90
2023-04-21T12:41:55.160Z,3.53
2023-04-21T12:44:21.822Z,3.85
2023-04-21T12:46:49.591Z,3.85
2023-04-21T12:49:17.307Z,3.47
2023-04-21T12:51:44.628Z,2.97
2023-04-21T12:54:14.641Z,3.90
2023-04-21T12:56:42.813Z,3.15
2023-04-21T12:59:11.188Z,3.10
2023-04-21T13:01:39.037Z,3.50
2023-04-21T13:04:06.279Z,3.50
2023-04-21T13:06:33.867Z,3.28
2023-04-21T13:09:00.742Z,6.00
2023-04-21T13:11:27.956Z,3.90
2023-04-21T13:13:54.675Z,3.88
2023-04-21T13:16:21.358Z,2.58
2023-04-21T13:18:50.701Z,3.78
2023-04-21T13:21:17.429Z,3.63
2023-04-21T13:23:44.279Z,3.90
2023-04-21T13:26:10.997Z,4.38
2023-04-21T13:28:38.410Z,4.30
2023-04-21T13:31:05.678Z,4.43
2023-04-21T13:33:35.101Z,3.58
2023-04-21T13:36:03.424Z,3.80
2023-04-21T13:38:30.544Z,3.05
2023-04-21T13:40:57.395Z,3.50
2023-04-21T13:43:24.199Z,3.20
2023-04-21T13:45:52.387Z,3.80
2023-04-21T13:48:24.185Z,3.42
2023-04-21T13:50:51.779Z,3.00
2023-04-21T13:53:21.129Z,3.00
2023-04-21T13:55:48.274Z,2.88
2023-04-21T13:58:16.784Z,3.15
2023-04-21T14:00:43.702Z,3.00
2023-04-21T14:03:11.749Z,3.35
2023-04-21T14:05:39.046Z,3.55
2023-04-21T14:08:06.031Z,3.40
2023-04-21T14:10:32.783Z,4.75
2023-04-21T14:12:59.525Z,4.60
2023-04-21T14:15:26.420Z,3.60
2023-04-21T14:17:53.596Z,3.88
2023-04-21T14:20:20.498Z,4.47
2023-04-21T14:22:47.256Z,3.47
2023-04-21T14:25:13.967Z,6.10
2023-04-21T14:27:40.735Z,7.38
2023-04-21T14:30:08.162Z,4.22
2023-04-21T14:32:35.045Z,8.70
2023-04-21T14:35:03.894Z,5.25
2023-04-21T14:37:30.809Z,4.07
2023-04-21T14:39:57.635Z,4.10
2023-04-21T14:42:24.348Z,3.10
2023-04-21T14:44:51.061Z,3.25
2023-04-21T14:47:17.860Z,3.92
2023-04-21T14:49:44.735Z,3.38
2023-04-21T14:52:11.899Z,4.78
2023-04-21T14:54:38.634Z,4.10
2023-04-21T14:57:17.901Z,3.95
2023-04-21T14:59:46.866Z,6.13
2023-04-21T15:02:14.326Z,4.03
2023-04-21T15:04:41.567Z,4.55
2023-04-21T15:07:08.611Z,4.75
2023-04-21T15:09:36.576Z,4.22
2023-04-21T15:12:03.521Z,3.47
2023-04-21T15:14:30.300Z,3.50
2023-04-21T15:16:57.128Z,5.38
2023-04-21T15:19:25.591Z,4.45
2023-04-21T15:21:52.778Z,4.35
2023-04-21T15:24:19.436Z,4.03
2023-04-21T15:26:46.140Z,9.68
2023-04-21T15:29:12.857Z,4.68
2023-04-21T15:31:40.282Z,3.53
2023-04-21T15:34:07.182Z,3.75
2023-04-21T15:36:34.374Z,3.55
2023-04-21T15:39:01.062Z,3.90
2023-04-21T15:41:29.632Z,3.75
2023-04-21T15:43:56.486Z,6.03
2023-04-21T15:46:23.329Z,9.23
2023-04-21T15:48:50.366Z,13.50
2023-04-21T15:51:18.971Z,6.90
2023-04-21T15:53:47.998Z,7.25
2023-04-21T15:56:15.798Z,5.68
2023-04-21T15:58:42.740Z,4.22
2023-04-21T16:01:09.663Z,6.00
2023-04-21T16:03:37.282Z,6.93
2023-04-21T16:06:04.338Z,5.70
2023-04-21T16:08:33.298Z,4.18
2023-04-21T16:11:00.793Z,5.50
2023-04-21T16:13:27.823Z,4.00
2023-04-21T16:15:54.665Z,4.03
2023-04-21T16:18:21.601Z,3.92
2023-04-21T16:20:48.528Z,4.70
2023-04-21T16:23:15.693Z,4.35
2023-04-21T16:25:43.225Z,8.50
2023-04-21T16:28:11.563Z,11.90
2023-04-21T16:30:43.308Z,9.40
2023-04-21T16:33:11.517Z,5.47
2023-04-21T16:35:39.403Z,6.38
2023-04-21T16:38:06.530Z,7.10
2023-04-21T16:40:33.660Z,7.28
2023-04-21T16:43:00.540Z,13.40
2023-04-21T16:45:28.523Z,8.30
2023-04-21T16:47:55.374Z,9.20
2023-04-21T16:50:22.270Z,7.70
2023-04-21T16:52:48.988Z,6.05
2023-04-21T16:55:15.930Z,8.90
2023-04-21T16:57:42.653Z,6.28
2023-04-21T17:00:09.851Z,14.98
2023-04-21T17:02:36.734Z,12.50
2023-04-21T17:05:04.143Z,9.05
2023-04-21T17:07:32.156Z,14.80
2023-04-21T17:09:58.895Z,11.85
2023-04-21T17:12:25.624Z,10.52
2023-04-21T17:14:52.372Z,10.25
2023-04-21T17:17:19.158Z,11.68
2023-04-21T17:19:45.957Z,10.65
2023-04-21T17:22:12.678Z,10.13
2023-04-21T17:24:52.013Z,11.90
2023-04-21T17:27:19.736Z,8.07
2023-04-21T17:29:46.967Z,9.00
2023-04-21T17:32:14.516Z,8.80
2023-04-21T17:34:41.311Z,8.57
2023-04-21T17:37:08.033Z,8.57
2023-04-21T17:39:34.729Z,8.45
2023-04-21T17:42:02.739Z,11.48
2023-04-21T17:44:29.841Z,11.00
2023-04-21T17:46:58.198Z,8.65
2023-04-21T17:49:25.512Z,7.93
2023-04-21T17:51:52.395Z,14.40
2023-04-21T17:54:19.032Z,11.45
2023-04-21T17:56:46.386Z,10.38
2023-04-21T17:59:13.916Z,8.88
2023-04-21T18:01:40.961Z,10.52
2023-04-21T18:04:08.099Z,9.07
2023-04-21T18:06:35.961Z,9.80
2023-04-21T18:09:05.064Z,9.35
2023-04-21T18:13:58.900Z,11.07
2023-04-21T18:16:26.471Z,13.35
2023-04-21T18:18:53.453Z,14.38
2023-04-21T18:21:20.904Z,16.48
2023-04-21T18:24:06.107Z,11.68
2023-04-21T18:26:32.859Z,13.80
2023-04-21T18:28:59.573Z,20.20
2023-04-21T18:31:28.673Z,20.05
2023-04-21T18:33:56.380Z,11.52
2023-04-21T18:36:23.524Z,19.67
2023-04-21T18:38:50.296Z,23.30
2023-04-21T18:41:16.956Z,19.35
2023-04-21T18:43:43.662Z,16.23
2023-04-21T18:46:10.316Z,19.70
2023-04-21T18:48:37.084Z,22.58
2023-04-21T18:51:03.853Z,20.67
2023-04-21T18:53:30.617Z,16.98
2023-04-21T18:55:57.297Z,20.33
2023-04-21T18:58:23.985Z,17.75
2023-04-21T19:00:50.838Z,16.23
2023-04-21T19:03:19.227Z,12.85
2023-04-21T19:05:46.040Z,12.35
2023-04-21T19:08:13.992Z,22.25
2023-04-21T19:10:40.739Z,14.55
2023-04-21T19:13:07.394Z,10.20
2023-04-21T19:15:35.125Z,8.35
2023-04-21T19:18:01.852Z,9.15
2023-04-21T19:20:29.474Z,9.23
2023-04-21T19:22:56.212Z,8.70
2023-04-21T19:25:22.885Z,9.23
2023-04-21T19:27:49.639Z,9.50
2023-04-21T19:30:16.365Z,9.32
2023-04-21T19:32:43.164Z,10.23
2023-04-21T19:35:10.126Z,11.27
2023-04-21T19:37:37.017Z,13.30
2023-04-21T19:40:05.492Z,19.45
2023-04-21T19:42:32.229Z,13.07
2023-04-21T19:44:58.902Z,16.25
2023-04-21T19:47:25.540Z,12.73
2023-04-21T19:49:52.208Z,13.52
2023-04-21T19:52:18.849Z,12.32
2023-04-21T19:54:45.505Z,13.07
2023-04-21T19:57:12.413Z,11.90
2023-04-21T19:59:39.706Z,11.77
2023-04-21T20:02:06.929Z,11.75
2023-04-21T20:04:34.672Z,13.50
2023-04-21T20:07:01.645Z,15.38
2023-04-21T20:09:28.360Z,14.52
2023-04-21T20:11:55.112Z,15.52
2023-04-21T20:14:22.041Z,15.45
2023-04-21T20:16:48.915Z,21.55
2023-04-21T20:19:17.369Z,24.30
2023-04-21T20:21:44.345Z,25.85
2023-04-21T20:24:11.060Z,31.30
2023-04-21T20:26:37.733Z,26.17
2023-04-21T20:29:04.452Z,23.25
2023-04-21T20:31:31.168Z,20.35
2023-04-21T20:33:57.952Z,18.58
2023-04-21T20:36:25.271Z,20.20
2023-04-21T20:38:51.966Z,19.20
2023-04-21T20:41:18.740Z,11.30
2023-04-21T20:43:45.476Z,11.90
2023-04-21T20:46:12.645Z,10.82
2023-04-21T20:48:39.440Z,9.75
2023-04-21T20:51:06.151Z,9.75
2023-04-21T20:53:33.002Z,9.23
2023-04-21T20:55:59.968Z,8.40
2023-04-21T20:58:26.676Z,7.10
2023-04-21T21:00:53.415Z,7.70
2023-04-21T21:03:21.759Z,7.57
2023-04-21T21:05:48.586Z,11.00
2023-04-21T21:08:15.500Z,13.18
2023-04-21T21:10:42.609Z,24.35
2023-04-21T21:13:09.291Z,22.58
2023-04-21T21:15:35.972Z,22.90
2023-04-21T21:18:03.111Z,15.05
2023-04-21T21:20:29.874Z,14.23
2023-04-21T21:22:56.630Z,15.95
2023-04-21T21:25:23.640Z,13.20
2023-04-21T21:27:50.435Z,16.17
2023-04-21T21:30:17.237Z,15.55
2023-04-21T21:32:44.195Z,14.55
2023-04-21T21:35:12.063Z,14.77
2023-04-21T21:37:39.434Z,16.85
2023-04-21T21:40:07.373Z,14.07
2023-04-21T21:42:34.149Z,15.98
2023-04-21T21:45:01.302Z,15.10
2023-04-21T21:47:28.221Z,11.27
2023-04-21T21:49:56.081Z,14.63
2023-04-21T21:52:22.909Z,10.75
2023-04-21T21:54:49.573Z,11.40
2023-04-21T21:57:16.413Z,13.07
2023-04-21T21:59:43.069Z,10.27
2023-04-21T22:02:09.918Z,9.93
2023-04-21T22:04:36.663Z,10.13
2023-04-21T22:07:03.769Z,9.95
2023-04-21T22:09:30.528Z,12.18
2023-04-21T22:11:57.296Z,13.20
2023-04-21T22:14:24.356Z,14.07
2023-04-21T22:16:53.254Z,15.18
2023-04-21T22:19:20.699Z,14.13
2023-04-21T22:21:47.888Z,13.77
2023-04-21T22:24:15.056Z,15.02
2023-04-21T22:26:42.020Z,15.90
2023-04-21T22:29:08.704Z,14.23
2023-04-21T22:31:35.503Z,17.67
2023-04-21T22:34:02.356Z,15.68
2023-04-21T22:36:28.994Z,15.88
2023-04-21T22:38:55.685Z,15.80
2023-04-21T22:41:22.534Z,16.92
2023-04-21T22:43:49.250Z,17.02
2023-04-21T22:46:15.928Z,18.77
2023-04-21T22:48:46.659Z,17.33
2023-04-21T22:51:18.358Z,18.05
2023-04-21T22:53:45.109Z,16.85
2023-04-21T22:56:11.800Z,27.35
2023-04-21T22:58:38.497Z,16.67
2023-04-21T23:01:05.327Z,17.48
2023-04-21T23:03:32.425Z,15.90
2023-04-21T23:05:59.245Z,17.00
2023-04-21T23:08:25.976Z,16.73
2023-04-21T23:10:52.869Z,16.85
2023-04-21T23:13:19.605Z,17.30
2023-04-21T23:15:46.285Z,16.67
2023-04-21T23:18:12.983Z,17.75
2023-04-21T23:20:39.733Z,19.35
2023-04-21T23:23:06.614Z,17.90
2023-04-21T23:25:33.277Z,19.25
2023-04-21T23:27:59.951Z,18.73
2023-04-21T23:30:26.635Z,18.33
2023-04-21T23:32:53.396Z,16.83
2023-04-21T23:35:20.092Z,17.48
2023-04-21T23:37:46.760Z,17.23
2023-04-21T23:40:13.633Z,16.35
2023-04-21T23:42:40.495Z,16.70
2023-04-21T23:45:07.722Z,17.52
2023-04-21T23:47:34.435Z,17.42
2023-04-21T23:50:01.182Z,16.33
2023-04-21T23:52:27.950Z,15.65
2023-04-21T23:54:54.640Z,15.38
2023-04-21T23:57:21.369Z,15.02
2023-04-21T23:59:48.076Z,13.98
